Time;durP1;ratioP1;P1;durP2;ratioP2;P2;SDS_P1;SDS_P2;PMS_P1;PMS_P2;Temp;Humidity;BMP_temperature;BMP_pressure;BME280_temperature;BME280_humidity;BME280_pressure;Samples;Min_cycle;Max_cycle;Signal;HPM_P1;HPM_P2
2021/09/14 00:01:35;;;;;;;5.53;5.03;;;;;;;21.12;59.26;96578.47;5088097;28;20271;-68
2021/09/14 00:04:01;;;;;;;8.60;5.47;;;;;;;21.09;59.15;96584.31;5089430;28;20431;-68
2021/09/14 00:06:26;;;;;;;5.77;5.27;;;;;;;21.10;59.04;96580.59;5092233;28;20212;-66
2021/09/14 00:08:52;;;;;;;7.20;5.77;;;;;;;21.06;59.47;96579.44;5091783;28;20185;-66
2021/09/14 00:11:17;;;;;;;7.17;6.00;;;;;;;21.06;59.53;96579.44;5090628;28;20177;-68
2021/09/14 00:13:43;;;;;;;6.27;5.63;;;;;;;21.01;59.32;96577.47;5091541;28;20547;-67
2021/09/14 00:16:08;;;;;;;6.30;5.80;;;;;;;21.01;59.57;96572.16;5089612;28;20205;-67
2021/09/14 00:18:34;;;;;;;5.07;4.67;;;;;;;21.01;59.51;96568.66;5091231;28;20661;-68
2021/09/14 00:21:00;;;;;;;6.03;5.43;;;;;;;21.01;59.28;96572.16;5091421;28;20213;-67
2021/09/14 00:23:25;;;;;;;6.30;5.70;;;;;;;21.00;59.38;96570.53;5091124;28;20192;-67
2021/09/14 00:25:51;;;;;;;7.73;5.23;;;;;;;21.00;59.32;96570.53;5091423;28;20523;-67
2021/09/14 00:28:16;;;;;;;6.27;5.70;;;;;;;21.00;59.50;96575.03;5091408;28;20182;-67
2021/09/14 00:30:42;;;;;;;8.80;4.90;;;;;;;20.96;59.60;96576.56;5091437;28;20729;-68
2021/09/14 00:33:07;;;;;;;6.23;5.20;;;;;;;20.97;59.46;96575.53;5088328;28;20223;-67
2021/09/14 00:35:33;;;;;;;6.70;5.80;;;;;;;20.94;59.53;96568.78;5091310;28;20209;-69
2021/09/14 00:37:58;;;;;;;7.30;5.73;;;;;;;20.90;59.91;96575.66;5090459;28;20280;-67
2021/09/14 00:40:24;;;;;;;8.23;5.90;;;;;;;20.89;59.57;96567.88;5091373;28;20671;-67
2021/09/14 00:42:50;;;;;;;6.43;5.53;;;;;;;20.82;59.98;96562.66;5090640;28;20188;-67
2021/09/14 00:45:15;;;;;;;5.77;5.27;;;;;;;20.79;59.79;96565.81;5091424;28;20300;-68
2021/09/14 00:47:41;;;;;;;6.40;5.80;;;;;;;20.77;59.97;96567.91;5091074;28;20217;-67
2021/09/14 00:50:07;;;;;;;10.13;6.20;;;;;;;20.71;60.38;96566.97;5089529;28;20230;-68
2021/09/14 00:52:34;;;;;;;6.47;5.87;;;;;;;20.69;60.55;96569.03;5090798;28;20181;-67
2021/09/14 00:55:00;;;;;;;7.80;5.73;;;;;;;20.69;60.52;96559.19;5089951;28;20466;-70
2021/09/14 00:57:25;;;;;;;9.50;5.70;;;;;;;20.69;60.24;96556.53;5091078;28;20420;-66
2021/09/14 00:59:51;;;;;;;7.43;5.73;;;;;;;20.69;60.20;96558.38;5091001;28;20189;-68
2021/09/14 01:02:17;;;;;;;5.40;4.90;;;;;;;20.68;60.29;96549.56;5094959;28;20725;-67
2021/09/14 01:04:42;;;;;;;8.37;5.23;;;;;;;20.67;60.41;96552.47;5093100;28;20205;-68
2021/09/14 01:07:08;;;;;;;7.93;5.23;;;;;;;20.67;60.61;96549.81;5090508;28;20300;-67
2021/09/14 01:09:35;;;;;;;8.03;4.80;;;;;;;20.61;60.66;96545.41;5089020;28;20652;-67
2021/09/14 01:12:01;;;;;;;5.93;5.00;;;;;;;20.60;61.12;96543.81;5090610;28;20234;-67
2021/09/14 01:14:27;;;;;;;6.43;5.83;;;;;;;20.56;61.06;96544.28;5089699;28;20481;-67
2021/09/14 01:16:52;;;;;;;7.20;5.70;;;;;;;20.60;61.01;96544.63;5091155;28;20250;-66
2021/09/14 01:19:18;;;;;;;6.60;5.50;;;;;;;20.60;61.15;96544.63;5090823;28;20178;-67
2021/09/14 01:21:43;;;;;;;6.33;5.73;;;;;;;20.55;61.31;96540.00;5090958;28;20578;-68
2021/09/14 01:24:09;;;;;;;6.30;5.70;;;;;;;20.53;61.23;96538.63;5091121;28;20177;-69
2021/09/14 01:26:35;;;;;;;6.33;5.73;;;;;;;20.50;61.47;96539.06;5091707;28;20190;-67
2021/09/14 01:29:12;;;;;;;6.80;6.10;;;;;;;20.47;61.55;96536.88;5090401;28;20189;-66
2021/09/14 01:31:38;;;;;;;6.47;5.87;;;;;;;20.46;61.43;96537.91;5088799;28;20428;-66
2021/09/14 01:34:04;;;;;;;6.53;5.97;;;;;;;20.46;61.81;96545.88;5092169;28;20424;-66
2021/09/14 01:36:29;;;;;;;6.30;5.70;;;;;;;20.42;61.80;96537.56;5100456;28;20464;-66
2021/09/14 01:38:55;;;;;;;7.33;6.20;;;;;;;20.39;61.97;96538.84;5090402;28;20431;-66
2021/09/14 01:41:21;;;;;;;7.73;6.10;;;;;;;20.39;62.14;96535.34;5090267;28;20213;-67
2021/09/14 01:43:46;;;;;;;6.57;5.97;;;;;;;20.35;61.83;96539.53;5090338;28;20692;-67
2021/09/14 01:46:12;;;;;;;7.10;5.70;;;;;;;20.30;62.23;96531.44;5089761;28;20676;-67
2021/09/14 01:48:38;;;;;;;6.73;5.90;;;;;;;20.30;62.55;96534.88;5089955;28;20247;-66
2021/09/14 01:51:04;;;;;;;6.33;5.83;;;;;;;20.29;62.61;96540.44;5090319;28;20189;-67
2021/09/14 01:53:30;;;;;;;9.93;5.53;;;;;;;20.25;62.78;96540.91;5090383;28;20570;-67
2021/09/14 01:56:03;;;;;;;6.73;6.13;;;;;;;20.22;62.75;96532.59;5090068;28;20504;-67
2021/09/14 01:58:29;;;;;;;7.90;6.33;;;;;;;20.19;62.88;96536.53;5089604;28;20617;-68
2021/09/14 02:03:36;;;;;;;7.33;6.73;;;;;;;20.20;63.59;96542.63;5084174;28;20589;-66
2021/09/14 02:59:34;;;;;;;8.93;7.43;;;;;;;19.87;65.91;96539.47;5092072;28;20419;-68
2021/09/14 03:02:00;;;;;;;8.20;7.40;;;;;;;19.88;65.98;96537.63;5087174;28;20544;-66
2021/09/14 03:04:26;;;;;;;11.10;7.20;;;;;;;19.87;65.97;96530.69;5092848;28;20454;-68
2021/09/14 03:06:51;;;;;;;10.60;8.17;;;;;;;19.88;66.10;96529.66;5093059;28;20415;-67
2021/09/14 03:09:17;;;;;;;8.30;7.40;;;;;;;19.86;65.86;96529.88;5092663;28;20264;-68
2021/09/14 03:11:43;;;;;;;8.67;7.87;;;;;;;19.85;66.26;96527.41;5092602;28;20190;-66
2021/09/14 03:14:08;;;;;;;8.37;7.57;;;;;;;19.88;66.11;96530.44;5092749;28;20609;-67
2021/09/14 03:16:35;;;;;;;8.33;7.60;;;;;;;19.90;66.35;96525.72;5090847;28;20205;-67
2021/09/14 03:19:00;;;;;;;8.50;7.70;;;;;;;19.94;66.01;96526.91;5091781;28;20660;-66
2021/09/14 03:21:26;;;;;;;8.40;7.57;;;;;;;19.96;66.03;96534.63;5092664;28;20463;-67
2021/09/14 03:23:52;;;;;;;11.57;7.43;;;;;;;19.99;66.03;96528.88;5094636;28;20545;-67
2021/09/14 03:26:17;;;;;;;9.17;7.57;;;;;;;20.01;65.77;96525.97;5090392;28;20228;-66
2021/09/14 03:28:43;;;;;;;8.23;7.43;;;;;;;20.00;65.90;96522.50;5095375;28;20177;-67
2021/09/14 03:31:09;;;;;;;8.33;7.23;;;;;;;20.03;65.82;96524.72;5095199;28;20710;-67
2021/09/14 03:33:34;;;;;;;8.33;7.57;;;;;;;20.04;65.80;96523.66;5087817;28;20589;-70
2021/09/14 03:36:00;;;;;;;8.97;8.07;;;;;;;20.01;65.97;96525.97;5083235;28;20221;-66
2021/09/14 03:38:26;;;;;;;8.70;7.80;;;;;;;19.98;65.77;96521.91;5091733;28;20591;-66
2021/09/14 03:40:51;;;;;;;10.93;7.83;;;;;;;19.93;65.91;96517.28;5091688;28;20208;-68
2021/09/14 03:43:18;;;;;;;8.63;7.83;;;;;;;19.95;65.86;96517.06;5092176;28;20207;-67
2021/09/14 03:45:46;;;;;;;9.10;8.20;;;;;;;19.92;66.12;96518.34;5092060;28;20202;-67
2021/09/14 03:48:13;;;;;;;7.60;6.90;;;;;;;19.91;66.09;96518.56;5091028;28;20481;-68
2021/09/14 03:50:38;;;;;;;9.70;8.33;;;;;;;19.93;65.59;96516.47;5092251;28;20503;-66
2021/09/14 03:53:04;;;;;;;8.60;7.70;;;;;;;19.90;66.06;96524.91;5091454;28;20420;-65
2021/09/14 03:55:30;;;;;;;9.10;8.27;;;;;;;19.86;66.27;96519.22;5091930;28;20220;-66
2021/09/14 03:57:56;;;;;;;9.70;8.33;;;;;;;19.84;66.25;96515.16;5091912;28;20428;-67
2021/09/14 04:00:21;;;;;;;9.60;8.30;;;;;;;19.80;66.23;96510.28;5090492;28;20209;-67
2021/09/14 04:02:57;;;;;;;11.90;8.50;;;;;;;19.78;66.15;96514.22;5091719;28;20848;-65
2021/09/14 04:05:30;;;;;;;13.90;9.63;;;;;;;19.78;66.39;96511.56;5084649;28;20221;-65
2021/09/14 04:10:37;;;;;;;8.90;8.10;;;;;;;19.73;66.53;96506.13;5091545;28;20917;-66
2021/09/14 04:13:03;;;;;;;9.47;8.20;;;;;;;19.73;66.39;96509.59;5092178;28;20428;-67
2021/09/14 04:15:29;;;;;;;9.47;8.47;;;;;;;19.72;66.28;96502.66;5091774;28;20527;-67
2021/09/14 04:17:54;;;;;;;10.57;8.40;;;;;;;19.69;66.15;96505.75;5091452;28;20484;-68
2021/09/14 04:20:20;;;;;;;9.40;8.50;;;;;;;19.63;66.52;96510.13;5092297;28;20201;-68
2021/09/14 04:22:46;;;;;;;8.20;7.40;;;;;;;19.65;66.45;96521.34;5092680;28;20243;-65
2021/09/14 04:25:12;;;;;;;12.80;8.10;;;;;;;19.63;66.40;96507.47;5090999;28;20444;-67
2021/09/14 04:27:38;;;;;;;17.50;8.50;;;;;;;19.63;66.50;96519.97;5090768;28;20186;-67
2021/09/14 04:30:05;;;;;;;12.33;8.17;;;;;;;19.60;66.46;96515.91;5090189;28;20416;-67
2021/09/14 04:32:34;;;;;;;9.57;8.60;;;;;;;19.59;66.68;96519.63;5091355;28;20205;-65
2021/09/14 04:35:00;;;;;;;9.53;7.80;;;;;;;19.58;66.72;96510.03;5087837;28;20495;-67
2021/09/14 04:37:25;;;;;;;13.90;8.57;;;;;;;19.58;66.46;96501.22;5090194;28;20711;-65
2021/09/14 04:39:52;;;;;;;11.37;8.47;;;;;;;19.55;66.37;96507.00;5087732;28;20317;-67
2021/09/14 04:42:17;;;;;;;9.10;8.20;;;;;;;19.53;66.61;96512.53;5090957;28;20185;-66
2021/09/14 04:44:43;;;;;;;10.13;9.07;;;;;;;19.48;66.36;96502.59;5093437;28;20450;-67
2021/09/14 04:47:09;;;;;;;9.70;8.17;;;;;;;19.48;66.53;96507.91;5087462;28;20198;-69
2021/09/14 04:49:35;;;;;;;11.07;8.47;;;;;;;19.47;66.74;96506.28;5091434;28;20917;-66
2021/09/14 04:52:06;;;;;;;11.33;8.50;;;;;;;19.45;66.94;96503.03;5090469;28;20170;-69
2021/09/14 04:54:35;;;;;;;10.27;9.03;;;;;;;19.45;66.75;96508.34;5091192;28;20977;-65
2021/09/14 04:57:01;;;;;;;13.57;8.23;;;;;;;19.46;66.75;96503.88;5072600;28;20431;-66
2021/09/14 04:59:26;;;;;;;11.33;8.10;;;;;;;19.45;66.67;96502.25;5089475;28;20420;-66
2021/09/14 05:01:52;;;;;;;10.17;8.37;;;;;;;19.42;66.53;96508.00;5069136;28;20264;-66
2021/09/14 05:04:18;;;;;;;12.80;8.33;;;;;;;19.39;66.72;96509.28;5090421;28;20213;-67
2021/09/14 05:06:44;;;;;;;11.90;8.30;;;;;;;19.38;66.64;96510.31;5088796;28;20213;-66
2021/09/14 05:09:10;;;;;;;11.17;8.03;;;;;;;19.32;66.60;96504.06;5090625;28;20426;-66
2021/09/14 05:11:35;;;;;;;9.40;7.70;;;;;;;19.30;67.08;96502.63;5090260;28;20178;-67
2021/09/14 05:14:01;;;;;;;9.10;8.20;;;;;;;19.28;67.37;96505.53;5090641;28;20554;-68
2021/09/14 05:16:27;;;;;;;13.17;8.20;;;;;;;19.38;67.12;96507.66;5091096;28;20236;-66
2021/09/14 05:18:52;;;;;;;12.93;8.90;;;;;;;19.43;67.20;96507.75;5091589;28;20218;-65
2021/09/14 05:21:18;;;;;;;10.10;8.50;;;;;;;19.47;66.74;96506.28;5089943;28;20202;-67
2021/09/14 05:23:44;;;;;;;13.73;8.00;;;;;;;19.50;66.64;96507.66;5090993;28;20181;-68
2021/09/14 05:26:11;;;;;;;12.17;8.80;;;;;;;19.58;66.49;96517.19;5087417;28;20446;-67
2021/09/14 05:28:38;;;;;;;9.13;8.17;;;;;;;19.60;66.12;96515.09;5084709;28;20192;-67
2021/09/14 05:31:06;;;;;;;9.70;8.33;;;;;;;19.67;65.73;96518.47;5074760;28;20423;-68
2021/09/14 05:33:33;;;;;;;10.90;8.00;;;;;;;19.74;65.41;96521.84;5083778;28;20423;-66
2021/09/14 05:35:58;;;;;;;10.20;8.77;;;;;;;19.78;65.43;96516.88;5083862;28;20565;-68
2021/09/14 05:38:25;;;;;;;9.90;7.60;;;;;;;19.88;65.25;96524.34;5088703;28;20526;-65
2021/09/14 05:40:55;;;;;;;12.57;8.30;;;;;;;20.00;64.75;96522.50;5089827;28;20206;-67
2021/09/14 05:43:24;;;;;;;13.77;7.23;;;;;;;20.14;64.64;96524.94;5093630;28;20427;-67
2021/09/14 05:45:50;;;;;;;10.13;8.10;;;;;;;20.23;64.07;96523.56;5093001;28;20522;-67
2021/09/14 05:48:15;;;;;;;8.30;7.50;;;;;;;20.36;63.23;96523.34;5094099;28;20426;-67
2021/09/14 05:50:42;;;;;;;12.00;8.00;;;;;;;20.45;63.10;96520.31;5094729;28;20260;-67
2021/09/14 05:53:08;;;;;;;8.60;6.77;;;;;;;20.55;62.71;96525.84;5094233;28;20651;-67
2021/09/14 05:55:37;;;;;;;13.83;6.73;;;;;;;20.65;62.60;96517.28;5093768;28;20540;-68
2021/09/14 05:58:04;;;;;;;9.63;7.67;;;;;;;20.71;62.43;96521.69;5092144;28;20733;-68
2021/09/14 06:00:30;;;;;;;9.83;7.33;;;;;;;20.78;61.83;96519.75;5094176;28;20459;-67
2021/09/14 06:02:55;;;;;;;8.57;7.17;;;;;;;20.94;61.66;96528.84;5093615;28;20743;-66
2021/09/14 06:05:21;;;;;;;7.63;6.83;;;;;;;21.15;61.13;96526.59;5094217;28;20202;-65
2021/09/14 06:07:47;;;;;;;7.70;6.90;;;;;;;21.58;60.69;96521.78;5093552;28;20181;-66
2021/09/14 06:10:12;;;;;;;7.00;6.27;;;;;;;22.18;59.25;96520.38;5093932;28;20554;-66
2021/09/14 06:12:38;;;;;;;7.43;6.73;;;;;;;22.87;57.46;96526.47;5093940;28;20181;-66
2021/09/14 06:15:04;;;;;;;6.77;6.07;;;;;;;23.36;54.48;96522.25;5090595;28;20276;-65
2021/09/14 06:17:29;;;;;;;6.50;5.90;;;;;;;23.84;53.31;96511.72;5093118;28;20193;-66
2021/09/14 06:19:55;;;;;;;7.50;5.70;;;;;;;24.33;51.83;96508.13;5093349;28;20490;-67
2021/09/14 06:22:21;;;;;;;6.70;5.27;;;;;;;24.87;50.61;96509.78;5093895;28;20178;-67
2021/09/14 06:24:47;;;;;;;11.30;5.50;;;;;;;25.55;48.34;96506.25;5093474;28;20216;-65
2021/09/14 06:27:15;;;;;;;7.93;5.43;;;;;;;25.96;45.81;96510.06;5092310;28;20193;-65
2021/09/14 06:29:40;;;;;;;6.07;5.47;;;;;;;26.67;45.29;96516.41;5093346;28;20442;-65
2021/09/14 06:32:09;;;;;;;6.53;4.90;;;;;;;27.55;42.65;96518.78;5093386;28;20420;-68
2021/09/14 06:34:36;;;;;;;7.07;5.10;;;;;;;28.35;41.21;96522.22;5093534;28;20213;-65
2021/09/14 06:37:02;;;;;;;9.17;5.30;;;;;;;28.16;40.44;96522.94;5091428;28;20463;-67
2021/09/14 06:39:28;;;;;;;7.23;5.23;;;;;;;27.87;41.48;96533.59;5093472;28;20531;-66
2021/09/14 06:41:54;;;;;;;12.80;5.00;;;;;;;26.87;43.26;96536.25;5093518;28;20603;-66
2021/09/14 06:44:20;;;;;;;5.50;5.00;;;;;;;26.41;44.32;96527.22;5091241;28;20616;-65
2021/09/14 06:46:45;;;;;;;7.37;4.80;;;;;;;26.15;45.02;96535.28;5091833;28;20431;-66
2021/09/14 06:49:11;;;;;;;9.40;8.17;;;;;;;25.69;46.23;96535.25;5092246;28;20268;-67
2021/09/14 06:51:37;;;;;;;7.37;5.33;;;;;;;25.53;46.69;96527.16;5091379;28;20181;-70
2021/09/14 06:54:02;;;;;;;7.00;5.23;;;;;;;25.44;47.38;96529.56;5090740;28;20553;-69
2021/09/14 06:56:28;;;;;;;6.83;5.53;;;;;;;25.32;47.80;96528.16;5093185;28;20228;-67
2021/09/14 06:58:54;;;;;;;6.93;5.60;;;;;;;25.30;47.40;96537.28;5093281;28;20255;-68
2021/09/14 07:01:20;;;;;;;6.20;5.43;;;;;;;24.83;48.54;96528.25;5093344;28;20218;-65
2021/09/14 07:03:46;;;;;;;6.97;5.67;;;;;;;24.99;48.12;96537.16;5093605;28;20419;-67
2021/09/14 07:06:12;;;;;;;4.80;4.40;;;;;;;25.11;47.86;96542.31;5093694;28;20519;-68
2021/09/14 07:08:37;;;;;;;5.70;5.20;;;;;;;25.36;47.62;96545.31;5093446;28;20519;-68
2021/09/14 07:11:03;;;;;;;6.90;5.70;;;;;;;25.16;48.22;96549.56;5093596;28;20548;-68
2021/09/14 07:13:29;;;;;;;6.20;5.60;;;;;;;25.32;48.23;96549.63;5092189;28;20186;-67
2021/09/14 07:15:54;;;;;;;6.30;5.50;;;;;;;25.35;48.69;96541.03;5095223;28;20588;-69
2021/09/14 07:18:20;;;;;;;5.73;5.10;;;;;;;25.43;48.15;96541.34;5096410;28;20331;-69
2021/09/14 07:20:45;;;;;;;5.77;5.17;;;;;;;25.57;47.80;96541.69;5094582;28;20248;-69
2021/09/14 07:23:11;;;;;;;7.47;5.63;;;;;;;25.58;47.64;96548.63;5094214;28;20266;-69
2021/09/14 07:25:41;;;;;;;5.60;5.10;;;;;;;25.57;47.95;96540.84;5095255;28;20209;-68
2021/09/14 07:28:11;;;;;;;11.53;5.03;;;;;;;25.45;47.27;96536.53;5076949;28;20189;-67
2021/09/14 07:30:37;;;;;;;5.30;4.67;;;;;;;25.19;48.06;96537.50;5091399;28;20428;-68
2021/09/14 07:33:03;;;;;;;5.50;5.00;;;;;;;25.44;48.16;96534.94;5091871;28;20929;-68
2021/09/14 07:35:30;;;;;;;14.43;5.80;;;;;;;25.34;47.86;96542.91;5092778;28;20504;-69
2021/09/14 07:37:59;;;;;;;9.03;5.57;;;;;;;25.39;48.03;96537.56;5092103;28;20202;-68
2021/09/14 07:40:25;;;;;;;6.20;5.10;;;;;;;25.50;48.27;96537.63;5093616;28;20489;-67
2021/09/14 07:42:51;;;;;;;13.47;4.97;;;;;;;25.49;48.29;96544.06;5093465;28;20439;-65
2021/09/14 07:45:16;;;;;;;19.57;5.67;;;;;;;25.77;48.00;96534.72;5089280;28;20784;-66
2021/09/14 07:47:42;;;;;;;9.93;5.93;;;;;;;25.73;48.17;96549.72;5091710;28;20424;-67
2021/09/14 07:50:08;;;;;;;7.63;5.10;;;;;;;25.96;47.46;96548.41;5090579;28;20208;-68
2021/09/14 07:52:34;;;;;;;12.70;6.20;;;;;;;25.93;47.66;96548.94;5091450;28;20182;-69
2021/09/14 07:54:59;;;;;;;7.30;4.80;;;;;;;26.13;46.51;96547.38;5092369;28;20444;-65
2021/09/14 07:57:25;;;;;;;6.90;5.17;;;;;;;26.21;47.04;96544.94;5090722;28;20616;-67
2021/09/14 07:59:51;;;;;;;6.67;4.90;;;;;;;26.33;46.61;96552.75;5091855;28;20192;-67
2021/09/14 08:02:16;;;;;;;7.90;5.00;;;;;;;26.41;46.35;96545.19;5090780;28;20225;-66
2021/09/14 08:04:42;;;;;;;7.10;5.60;;;;;;;26.09;47.18;96554.31;5091694;28;20212;-66
2021/09/14 08:07:07;;;;;;;7.20;5.13;;;;;;;26.43;46.48;96546.56;5091949;28;20177;-68
2021/09/14 08:09:33;;;;;;;7.57;4.90;;;;;;;26.67;46.22;96546.75;5090734;28;20578;-70
2021/09/14 08:11:59;;;;;;;5.87;4.70;;;;;;;26.95;45.50;96557.22;5091037;28;20181;-69
2021/09/14 08:14:25;;;;;;;5.70;4.73;;;;;;;26.72;45.90;96545.94;5089135;28;20205;-66
2021/09/14 08:16:50;;;;;;;6.17;5.57;;;;;;;25.56;48.01;96560.69;5091864;28;20185;-69
2021/09/14 08:19:16;;;;;;;7.27;4.93;;;;;;;26.37;46.50;96555.69;5091650;28;20539;-66
2021/09/14 08:21:42;;;;;;;5.73;5.23;;;;;;;26.61;45.83;96553.25;5091981;28;20342;-68
2021/09/14 08:24:09;;;;;;;5.23;4.77;;;;;;;27.03;45.20;96559.34;5091876;28;20200;-68
2021/09/14 08:26:39;;;;;;;6.33;5.23;;;;;;;26.82;45.74;96559.41;5090815;28;20208;-68
2021/09/14 08:29:05;;;;;;;5.20;4.80;;;;;;;26.41;45.89;96564.81;5091210;28;20422;-67
2021/09/14 08:31:31;;;;;;;6.90;5.70;;;;;;;26.74;45.36;96554.53;5088948;28;20926;-67
2021/09/14 08:33:57;;;;;;;8.30;5.30;;;;;;;27.16;44.39;96560.59;5091965;28;20416;-67
2021/09/14 08:36:24;;;;;;;5.33;4.83;;;;;;;27.16;44.31;96557.91;5091976;28;20761;-67
2021/09/14 08:38:51;;;;;;;5.27;4.70;;;;;;;27.38;44.11;96554.88;5091463;28;20950;-68
2021/09/14 08:41:17;;;;;;;5.70;5.03;;;;;;;27.50;43.56;96561.84;5100696;28;20455;-67
2021/09/14 08:43:46;;;;;;;4.93;4.53;;;;;;;27.41;43.59;96553.50;5088673;28;20467;-68
2021/09/14 08:46:13;;;;;;;5.10;4.70;;;;;;;27.09;44.51;96557.44;5090586;28;20470;-66
2021/09/14 08:48:39;;;;;;;7.30;4.80;;;;;;;26.90;44.98;96554.53;5091325;28;20419;-66
2021/09/14 08:51:06;;;;;;;5.47;4.97;;;;;;;27.52;44.87;96548.91;5090531;28;20452;-69
2021/09/14 08:53:34;;;;;;;5.37;4.87;;;;;;;27.42;43.93;96545.19;5091697;28;20423;-67
2021/09/14 08:56:01;;;;;;;7.90;4.93;;;;;;;27.98;43.59;96553.19;5089782;28;20841;-68
2021/09/14 08:58:27;;;;;;;8.47;6.20;;;;;;;27.81;43.35;96551.69;5090953;28;20416;-65
2021/09/14 09:00:53;;;;;;;6.20;5.00;;;;;;;28.29;42.38;96543.00;5090407;28;20465;-67
2021/09/14 09:03:28;;;;;;;5.20;4.80;;;;;;;28.45;41.95;96543.66;5090864;28;20181;-66
2021/09/14 09:05:54;;;;;;;7.00;5.70;;;;;;;28.77;41.70;96547.69;5090920;28;20669;-67
2021/09/14 09:08:27;;;;;;;5.30;4.80;;;;;;;28.72;41.13;96536.94;5089758;28;20431;-67
2021/09/14 09:11:06;;;;;;;4.60;4.13;;;;;;;28.91;40.86;96541.63;5089955;28;20510;-67
2021/09/14 09:13:34;;;;;;;8.10;4.90;;;;;;;28.65;42.11;96542.66;5090020;28;20808;-68
2021/09/14 09:16:00;;;;;;;4.90;4.50;;;;;;;29.33;40.60;96539.22;5087995;28;20444;-68
2021/09/14 09:18:26;;;;;;;5.07;4.33;;;;;;;29.16;40.34;96537.78;5089615;28;20937;-66
2021/09/14 09:21:00;;;;;;;5.60;5.00;;;;;;;29.21;40.45;96548.53;5087982;28;20471;-68
2021/09/14 09:23:26;;;;;;;8.67;4.90;;;;;;;29.56;40.13;96542.94;5084679;28;20445;-65
2021/09/14 09:26:04;;;;;;;4.57;4.17;;;;;;;29.37;39.91;96551.03;5090357;28;20448;-66
2021/09/14 09:28:30;;;;;;;8.80;4.90;;;;;;;29.67;39.81;96552.53;5090966;28;20423;-67
2021/09/14 09:31:00;;;;;;;9.37;4.70;;;;;;;29.88;39.29;96547.59;5089754;28;20499;-69
2021/09/14 09:33:30;;;;;;;4.40;4.00;;;;;;;30.07;38.96;96552.22;5090999;28;20181;-66
2021/09/14 09:36:05;;;;;;;5.00;4.60;;;;;;;30.15;39.06;96554.25;5090935;28;20452;-68
2021/09/14 09:38:31;;;;;;;6.67;4.70;;;;;;;30.27;39.16;96555.66;5090892;28;20418;-67
2021/09/14 09:40:56;;;;;;;8.47;4.90;;;;;;;29.84;39.97;96549.31;5071576;28;20554;-68
2021/09/14 09:43:28;;;;;;;6.73;4.10;;;;;;;30.12;38.72;96548.63;5091320;28;20189;-69
2021/09/14 09:46:03;;;;;;;7.47;4.60;;;;;;;30.08;38.21;96543.03;5088785;28;20205;-66
2021/09/14 09:48:29;;;;;;;4.63;3.70;;;;;;;29.26;40.16;96545.75;5091277;28;20421;-65
2021/09/14 09:50:55;;;;;;;7.03;4.30;;;;;;;29.80;39.65;96537.47;5090109;28;20416;-67
2021/09/14 09:53:22;;;;;;;7.60;4.30;;;;;;;29.97;38.35;96539.69;5090553;28;20193;-68
2021/09/14 09:55:48;;;;;;;5.70;4.67;;;;;;;30.35;38.60;96536.09;5094438;28;20201;-69
2021/09/14 09:58:14;;;;;;;5.90;4.40;;;;;;;29.49;40.11;96539.81;5090098;28;20472;-65
2021/09/14 10:00:40;;;;;;;6.37;4.40;;;;;;;29.99;39.70;96544.81;5089791;28;20769;-65
2021/09/14 10:03:14;;;;;;;4.23;3.83;;;;;;;30.15;39.24;96539.94;5090591;28;20455;-68
2021/09/14 10:05:40;;;;;;;6.27;4.53;;;;;;;29.73;39.94;96537.84;5089776;28;20555;-65
2021/09/14 10:08:11;;;;;;;11.13;4.80;;;;;;;30.19;38.61;96535.53;5090244;28;20419;-67
2021/09/14 10:10:39;;;;;;;6.63;4.27;;;;;;;30.47;37.99;96531.00;5090092;28;20438;-69
2021/09/14 10:13:07;;;;;;;7.93;4.80;;;;;;;30.01;39.16;96538.00;5088973;28;20914;-66
2021/09/14 10:15:44;;;;;;;4.67;4.27;;;;;;;30.14;38.32;96532.94;5088543;28;20538;-66
2021/09/14 10:18:11;;;;;;;4.60;4.20;;;;;;;30.45;37.99;96535.09;5099074;28;20420;-66
2021/09/14 10:20:42;;;;;;;5.63;4.50;;;;;;;30.14;38.71;96541.81;5098890;28;20475;-67
2021/09/14 10:23:17;;;;;;;6.57;4.87;;;;;;;29.96;38.49;96537.28;5101260;28;21781;-67
2021/09/14 10:25:46;;;;;;;5.40;4.10;;;;;;;29.81;39.31;96541.78;5101326;28;20459;-65
2021/09/14 10:28:13;;;;;;;4.77;4.07;;;;;;;30.11;38.93;96542.44;5105280;28;20587;-66
2021/09/14 10:30:40;;;;;;;6.00;4.50;;;;;;;30.60;38.25;96536.75;5102692;28;20412;-69
2021/09/14 10:33:17;;;;;;;7.00;4.23;;;;;;;30.60;38.50;96534.06;5103098;28;20427;-67
2021/09/14 10:35:45;;;;;;;5.63;4.60;;;;;;;30.83;38.09;96539.56;5106462;28;20526;-68
2021/09/14 10:38:12;;;;;;;4.97;4.47;;;;;;;30.33;38.72;96533.66;5100878;28;20428;-66
2021/09/14 10:40:40;;;;;;;8.10;4.97;;;;;;;30.45;38.51;96535.91;5093895;28;20447;-67
2021/09/14 10:43:06;;;;;;;6.07;5.43;;;;;;;30.84;38.58;96541.19;5094020;28;20519;-65
2021/09/14 10:45:41;;;;;;;5.10;4.60;;;;;;;31.42;37.13;96526.22;5095581;28;20808;-66
2021/09/14 10:48:19;;;;;;;6.30;5.00;;;;;;;31.12;37.71;96530.38;5102458;28;20181;-67
2021/09/14 10:50:44;;;;;;;5.67;4.70;;;;;;;31.37;37.28;96532.56;5113075;28;20493;-66
2021/09/14 10:53:21;;;;;;;4.93;4.33;;;;;;;31.40;37.32;96533.84;5099495;28;20447;-67
2021/09/14 10:55:51;;;;;;;13.97;4.00;;;;;;;31.44;37.05;96534.84;5096160;28;20193;-66
2021/09/14 10:58:17;;;;;;;7.13;4.47;;;;;;;31.77;36.47;96539.25;5085505;28;20424;-66
2021/09/14 11:00:47;;;;;;;4.67;4.27;;;;;;;31.63;36.77;96539.28;5093742;28;20508;-66
2021/09/14 11:03:14;;;;;;;6.17;4.13;;;;;;;30.87;37.29;96543.28;5092907;28;20178;-66
2021/09/14 11:05:39;;;;;;;9.60;4.40;;;;;;;31.29;37.12;96541.38;5076580;28;20443;-66
2021/09/14 11:08:09;;;;;;;10.03;4.80;;;;;;;31.16;37.42;96540.31;5092968;28;20856;-66
2021/09/14 11:10:36;;;;;;;4.70;3.93;;;;;;;31.23;37.62;96535.28;5093189;28;20205;-68
2021/09/14 11:13:02;;;;;;;9.57;4.90;;;;;;;31.48;37.08;96538.53;5092012;28;20477;-66
2021/09/14 11:15:28;;;;;;;8.50;4.30;;;;;;;31.80;36.14;96538.66;5089702;28;20438;-68
2021/09/14 11:17:54;;;;;;;10.33;4.50;;;;;;;31.21;37.53;96537.47;5091669;28;20505;-66
2021/09/14 11:20:21;;;;;;;4.30;4.00;;;;;;;31.73;36.57;96539.09;5091632;28;20235;-67
2021/09/14 11:22:49;;;;;;;5.20;4.70;;;;;;;32.03;35.79;96542.19;5092693;28;20186;-68
2021/09/14 11:25:19;;;;;;;6.70;4.77;;;;;;;31.90;36.49;96546.53;5093012;28;20817;-68
2021/09/14 11:27:59;;;;;;;4.90;4.50;;;;;;;32.20;35.98;96535.28;5091774;28;20480;-65
2021/09/14 11:30:26;;;;;;;6.07;4.50;;;;;;;31.57;36.54;96541.31;5092066;28;20803;-65
2021/09/14 11:32:52;;;;;;;5.97;4.27;;;;;;;32.26;35.46;96539.47;5092159;28;20463;-68
2021/09/14 11:35:19;;;;;;;5.40;4.87;;;;;;;32.60;35.11;96538.88;5090524;28;20435;-66
2021/09/14 11:37:44;;;;;;;5.93;4.90;;;;;;;32.47;35.60;96548.69;5089774;28;20945;-66
2021/09/14 11:40:17;;;;;;;7.37;5.17;;;;;;;32.50;34.75;96541.03;5092081;28;20424;-66
2021/09/14 11:43:03;;;;;;;5.07;4.60;;;;;;;32.24;35.48;96541.66;5092254;28;20173;-66
2021/09/14 11:45:32;;;;;;;6.97;4.60;;;;;;;32.55;34.86;96546.34;5087913;28;20443;-66
2021/09/14 11:47:59;;;;;;;5.70;4.17;;;;;;;32.15;36.08;96549.75;5091960;28;20420;-67
2021/09/14 11:50:27;;;;;;;7.13;4.60;;;;;;;32.58;35.17;96545.69;5092158;28;20787;-66
2021/09/14 11:53:08;;;;;;;4.97;4.37;;;;;;;32.44;35.54;96552.03;5089631;28;20926;-65
2021/09/14 11:55:40;;;;;;;7.67;4.70;;;;;;;32.19;35.93;96558.84;5091861;28;20443;-66
2021/09/14 11:58:05;;;;;;;5.03;4.43;;;;;;;32.19;35.40;96550.72;5091694;28;20408;-68
2021/09/14 12:00:38;;;;;;;5.80;4.00;;;;;;;32.52;34.95;96547.75;5091975;28;20481;-66
2021/09/14 12:03:05;;;;;;;4.97;4.47;;;;;;;32.41;35.46;96552.66;5090429;28;20682;-67
2021/09/14 12:05:32;;;;;;;4.80;4.20;;;;;;;32.19;35.93;96550.72;5090832;28;20444;-67
2021/09/14 12:07:59;;;;;;;4.20;3.80;;;;;;;31.99;36.22;96543.91;5091652;28;20476;-67
2021/09/14 12:10:26;;;;;;;7.90;4.50;;;;;;;31.58;37.22;96536.69;5091868;28;20408;-65
2021/09/14 12:12:52;;;;;;;5.10;4.60;;;;;;;31.73;36.94;96544.50;5089512;28;21113;-68
2021/09/14 12:15:29;;;;;;;7.50;4.13;;;;;;;31.52;36.60;96544.13;5087468;28;20481;-67
2021/09/14 12:18:05;;;;;;;6.43;4.27;;;;;;;31.89;36.56;96541.44;5091215;28;20431;-67
2021/09/14 12:20:32;;;;;;;7.43;4.60;;;;;;;31.73;36.45;96538.31;5091300;28;20443;-68
2021/09/14 12:22:58;;;;;;;7.43;6.60;;;;;;;32.14;35.89;96540.00;5090127;28;20510;-66
2021/09/14 12:25:23;;;;;;;4.50;4.10;;;;;;;32.42;35.16;96542.59;5091849;28;20454;-67
2021/09/14 12:27:49;;;;;;;6.20;4.67;;;;;;;32.10;35.59;96539.03;5091313;28;20228;-67
2021/09/14 12:30:14;;;;;;;5.07;4.40;;;;;;;32.59;34.55;96531.84;5091113;28;20227;-69